createdAt,value
2022-08-17T00:00:13.626Z,98708.91
2022-08-17T00:03:17.374Z,98704.56
2022-08-17T00:05:56.165Z,98706.56
2022-08-17T00:08:26.795Z,98717.97
2022-08-17T00:10:54.902Z,98719.16
2022-08-17T00:13:34.050Z,98712.84
2022-08-17T00:16:08.946Z,98708.97
2022-08-17T00:19:06.223Z,98706.63
2022-08-17T00:21:25.098Z,98709.00
2022-08-17T00:23:52.351Z,98701.56
2022-08-17T00:26:43.512Z,98700.38
2022-08-17T00:29:08.117Z,98704.31
2022-08-17T00:31:35.631Z,98703.50
2022-08-17T00:34:03.573Z,98693.31
2022-08-17T00:36:30.352Z,98702.72
2022-08-17T00:38:56.875Z,98687.78
2022-08-17T00:41:26.091Z,98690.16
2022-08-17T00:43:56.543Z,98690.94
2022-08-17T00:46:32.382Z,98694.47
2022-08-17T00:48:59.296Z,98693.66
2022-08-17T00:51:33.276Z,98688.94
2022-08-17T00:54:14.065Z,98692.47
2022-08-17T00:56:47.800Z,98697.19
2022-08-17T00:59:17.807Z,98702.72
2022-08-17T01:01:45.271Z,98700.00
2022-08-17T01:04:13.675Z,98703.94
2022-08-17T01:06:42.099Z,98710.22
2022-08-17T01:09:09.055Z,98702.72
2022-08-17T01:11:37.181Z,98705.84
2022-08-17T01:14:04.072Z,98703.09
2022-08-17T01:16:32.394Z,98697.22
2022-08-17T01:19:03.373Z,98694.81
2022-08-17T01:21:44.274Z,98704.22
2022-08-17T01:24:10.865Z,98691.25
2022-08-17T01:26:41.193Z,98696.34
2022-08-17T01:29:08.092Z,98700.28
2022-08-17T01:31:43.147Z,98697.50
2022-08-17T01:34:11.527Z,98702.63
2022-08-17T01:36:41.739Z,98705.38
2022-08-17T01:39:15.313Z,98703.81
2022-08-17T01:41:43.069Z,98707.34
2022-08-17T01:44:11.445Z,98730.16
2022-08-17T01:46:38.320Z,98749.41
2022-08-17T01:49:10.730Z,98726.25
2022-08-17T01:51:37.770Z,98738.88
2022-08-17T01:54:10.246Z,98740.09
2022-08-17T01:56:40.691Z,98765.75
2022-08-17T01:59:07.469Z,98772.84
2022-08-17T02:01:35.672Z,98761.91
2022-08-17T02:04:03.190Z,98761.91
2022-08-17T02:06:44.818Z,98754.06
2022-08-17T02:09:16.639Z,98750.19
2022-08-17T02:11:44.387Z,98762.34
2022-08-17T02:14:12.031Z,98765.91
2022-08-17T02:16:40.563Z,98760.41
2022-08-17T02:19:09.940Z,98766.66
2022-08-17T02:21:38.081Z,98762.69
2022-08-17T02:24:08.756Z,98772.47
2022-08-17T02:26:36.447Z,98769.72
2022-08-17T02:29:04.226Z,98770.47
2022-08-17T02:31:31.200Z,98773.53
2022-08-17T02:34:03.644Z,98781.78
2022-08-17T02:36:31.947Z,98772.28
2022-08-17T02:39:00.283Z,98765.59
2022-08-17T02:41:27.398Z,98781.25
2022-08-17T02:43:53.950Z,98776.53
2022-08-17T02:46:20.575Z,98781.97
2022-08-17T02:48:47.431Z,98780.31
2022-08-17T02:51:14.255Z,98782.19
2022-08-17T02:53:40.976Z,98767.22
2022-08-17T02:56:07.631Z,98760.47
2022-08-17T02:58:35.783Z,98740.78
2022-08-17T03:01:05.238Z,98736.03
2022-08-17T03:03:32.171Z,98746.13
2022-08-17T03:05:59.043Z,98729.56
2022-08-17T03:08:25.661Z,98724.69
2022-08-17T03:10:52.652Z,98720.16
2022-08-17T03:13:19.443Z,98725.19
2022-08-17T03:15:47.382Z,98732.50
2022-08-17T03:18:19.375Z,98718.72
2022-08-17T03:20:54.718Z,98730.47
2022-08-17T03:23:24.018Z,98724.56
2022-08-17T03:25:52.985Z,98720.66
2022-08-17T03:28:20.204Z,98720.97
2022-08-17T03:30:47.034Z,98731.53
2022-08-17T03:33:13.760Z,98723.28
2022-08-17T03:35:40.958Z,98722.47
2022-08-17T03:38:10.270Z,98728.34
2022-08-17T03:40:57.975Z,98722.44
2022-08-17T03:43:25.298Z,98720.13
2022-08-17T03:46:27.004Z,98726.50
2022-08-17T03:49:14.581Z,98724.22
2022-08-17T03:51:59.697Z,98728.19
2022-08-17T03:54:44.582Z,98725.84
2022-08-17T03:57:12.527Z,98731.69
2022-08-17T03:59:39.734Z,98734.38
2022-08-17T04:02:16.092Z,98740.25
2022-08-17T04:04:42.728Z,98748.44
2022-08-17T04:07:09.499Z,98743.75
2022-08-17T04:09:36.699Z,98742.59
2022-08-17T04:12:05.264Z,98736.69
2022-08-17T04:14:39.280Z,98727.19
2022-08-17T04:17:24.795Z,98726.31
2022-08-17T04:19:52.175Z,98718.41
2022-08-17T04:22:33.100Z,98719.84
2022-08-17T04:25:15.739Z,98709.06
2022-08-17T04:27:42.370Z,98715.28
2022-08-17T04:30:09.676Z,98709.34
2022-08-17T04:33:00.440Z,98713.16
2022-08-17T04:35:37.042Z,98710.38
2022-08-17T04:38:04.212Z,98709.97
2022-08-17T04:40:49.327Z,98698.94
2022-08-17T04:43:19.325Z,98693.91
2022-08-17T04:45:56.289Z,98694.66
2022-08-17T04:48:29.944Z,98679.44
2022-08-17T04:51:07.459Z,98688.06
2022-08-17T04:53:34.176Z,98673.63
2022-08-17T04:56:00.796Z,98670.53
2022-08-17T04:58:27.577Z,98665.56
2022-08-17T05:00:54.158Z,98667.19
2022-08-17T05:03:20.743Z,98672.06
2022-08-17T05:05:49.691Z,98674.75
2022-08-17T05:08:18.672Z,98675.00
2022-08-17T05:10:46.085Z,98663.00
2022-08-17T05:13:17.201Z,98663.09
2022-08-17T05:15:47.602Z,98660.44
2022-08-17T05:18:15.766Z,98673.16
2022-08-17T05:20:43.070Z,98674.06
2022-08-17T05:23:12.840Z,98683.69
2022-08-17T05:25:47.771Z,98684.53
2022-08-17T05:28:15.393Z,98684.16
2022-08-17T05:30:43.265Z,98683.06
2022-08-17T05:33:11.218Z,98683.50
2022-08-17T05:35:42.565Z,98678.47
2022-08-17T05:38:09.779Z,98680.84
2022-08-17T05:40:37.517Z,98681.19
2022-08-17T05:43:14.756Z,98698.13
2022-08-17T05:45:55.202Z,98706.84
2022-08-17T05:48:39.632Z,98717.13
2022-08-17T05:51:12.870Z,98736.69
2022-08-17T05:53:51.458Z,98748.31
2022-08-17T05:56:43.884Z,98755.16
2022-08-17T05:59:19.388Z,98751.03
2022-08-17T06:02:06.713Z,98754.88
2022-08-17T06:04:57.566Z,98755.19
2022-08-17T06:07:27.245Z,98760.06
2022-08-17T06:10:22.032Z,98764.91
2022-08-17T06:12:58.755Z,98768.06
2022-08-17T06:15:46.674Z,98762.47
2022-08-17T06:18:18.590Z,98764.09
2022-08-17T06:20:49.067Z,98760.69
2022-08-17T06:23:25.810Z,98761.28
2022-08-17T06:25:58.384Z,98758.69
2022-08-17T06:28:50.279Z,98773.69
2022-08-17T06:31:22.559Z,98768.25
2022-08-17T06:33:50.307Z,98768.69
2022-08-17T06:36:48.305Z,98770.38
2022-08-17T06:39:31.419Z,98764.47
2022-08-17T06:43:02.779Z,98766.03
2022-08-17T06:45:07.127Z,98762.91
2022-08-17T06:47:51.355Z,98764.81
2022-08-17T06:50:27.700Z,98775.72
2022-08-17T06:53:03.308Z,98770.09
2022-08-17T06:55:38.146Z,98769.28
2022-08-17T06:58:16.403Z,98775.94
2022-08-17T07:00:47.439Z,98768.03
2022-08-17T07:03:32.429Z,98776.22
2022-08-17T07:06:08.504Z,98774.25
2022-08-17T07:08:59.113Z,98786.97
2022-08-17T07:11:49.940Z,98790.03
2022-08-17T07:14:51.784Z,98797.06
2022-08-17T07:17:20.418Z,98801.38
2022-08-17T07:19:49.812Z,98803.81
2022-08-17T07:22:22.475Z,98801.97
2022-08-17T07:24:59.636Z,98811.06
2022-08-17T07:27:31.154Z,98809.94
2022-08-17T07:30:10.895Z,98819.06
2022-08-17T07:32:45.380Z,98817.97
2022-08-17T07:35:17.740Z,98810.53
2022-08-17T07:38:25.967Z,98806.97
2022-08-17T07:41:05.965Z,98806.97
2022-08-17T07:43:39.987Z,98806.13
2022-08-17T07:46:45.833Z,98818.66
2022-08-17T07:49:15.316Z,98821.75
2022-08-17T07:51:45.617Z,98819.00
2022-08-17T07:54:15.334Z,98809.59
2022-08-17T07:56:46.904Z,98799.78
2022-08-17T07:59:13.402Z,98806.97
2022-08-17T08:01:44.420Z,98808.13
2022-08-17T08:04:37.581Z,98818.81
2022-08-17T08:07:25.649Z,98812.94
2022-08-17T08:10:00.992Z,98824.38
2022-08-17T08:12:33.423Z,98818.88
2022-08-17T08:15:09.327Z,98825.19
2022-08-17T08:17:47.363Z,98821.22
2022-08-17T08:20:50.982Z,98834.25
2022-08-17T08:23:34.992Z,98819.28
2022-08-17T08:26:27.256Z,98822.38
2022-08-17T08:29:28.408Z,98827.50
2022-08-17T08:31:56.271Z,98833.03
2022-08-17T08:35:03.779Z,98839.72
2022-08-17T08:37:37.993Z,98839.75
2022-08-17T08:40:17.596Z,98849.63
2022-08-17T08:42:56.486Z,98859.84
2022-08-17T08:45:33.016Z,98855.88
2022-08-17T08:48:05.899Z,98862.94
2022-08-17T08:50:42.812Z,98863.72
2022-08-17T08:53:41.700Z,98872.47
2022-08-17T08:56:26.952Z,98873.53
2022-08-17T08:58:59.410Z,98869.47
2022-08-17T09:01:47.311Z,98865.78
2022-08-17T09:04:25.021Z,98861.72
2022-08-17T09:07:01.415Z,98847.41
2022-08-17T09:09:46.791Z,98852.84
2022-08-17T09:12:36.843Z,98849.50
2022-08-17T09:15:14.486Z,98852.41
2022-08-17T09:19:02.377Z,98834.31
2022-08-17T09:21:38.305Z,98844.50
2022-08-17T09:24:20.695Z,98832.31
2022-08-17T09:27:15.099Z,98843.88
2022-08-17T09:29:52.037Z,98837.91
2022-08-17T09:32:28.694Z,98831.94
2022-08-17T09:35:01.965Z,98829.44
2022-08-17T09:37:53.391Z,98832.56
2022-08-17T09:40:22.981Z,98827.00
2022-08-17T09:43:12.591Z,98828.78
2022-08-17T09:45:45.466Z,98803.75
2022-08-17T09:48:21.658Z,98822.56
2022-08-17T09:51:13.616Z,98825.09
2022-08-17T09:53:40.784Z,98829.09
2022-08-17T09:56:47.045Z,98836.91
2022-08-17T09:59:20.325Z,98835.59
2022-08-17T10:02:20.279Z,98849.28
2022-08-17T10:04:57.104Z,98850.13
2022-08-17T10:07:52.594Z,98849.28
2022-08-17T10:10:29.675Z,98846.97
2022-08-17T10:13:01.943Z,98841.88
2022-08-17T10:15:56.357Z,98837.56
2022-08-17T10:18:35.230Z,98835.16
2022-08-17T10:21:29.302Z,98828.13
2022-08-17T10:24:39.549Z,98835.06
2022-08-17T10:27:45.097Z,98828.38
2022-08-17T10:30:17.970Z,98829.47
2022-08-17T10:32:55.917Z,98842.22
2022-08-17T10:36:12.237Z,98840.25
2022-08-17T10:38:58.691Z,98831.34
2022-08-17T10:41:27.990Z,98829.78
2022-08-17T10:44:40.456Z,98834.66
2022-08-17T10:47:08.856Z,98843.63
2022-08-17T10:49:38.812Z,98842.84
2022-08-17T10:52:20.426Z,98850.25
2022-08-17T10:54:49.109Z,98839.63
2022-08-17T10:57:33.951Z,98840.06
2022-08-17T11:00:05.090Z,98836.19
2022-08-17T11:02:39.659Z,98842.97
2022-08-17T11:05:43.782Z,98844.06
2022-08-17T11:08:13.713Z,98845.72
2022-08-17T11:11:01.211Z,98853.22
2022-08-17T11:13:45.799Z,98851.00
2022-08-17T11:16:30.974Z,98853.03
2022-08-17T11:19:08.538Z,98857.50
2022-08-17T11:22:09.223Z,98857.44
2022-08-17T11:24:37.153Z,98863.25
2022-08-17T11:27:12.322Z,98861.91
2022-08-17T11:29:59.528Z,98865.94
2022-08-17T11:32:28.273Z,98873.25
2022-08-17T11:35:22.914Z,98868.34
2022-08-17T11:38:14.031Z,98870.31
2022-08-17T11:41:04.222Z,98866.09
2022-08-17T11:43:46.192Z,98861.38
2022-08-17T11:46:12.835Z,98859.81
2022-08-17T11:49:21.150Z,98860.19
2022-08-17T11:52:10.173Z,98858.94
2022-08-17T11:54:47.508Z,98857.34
2022-08-17T11:57:26.396Z,98860.22
2022-08-17T12:00:07.348Z,98860.91
2022-08-17T12:02:38.931Z,98852.91
2022-08-17T12:05:12.501Z,98856.34
2022-08-17T12:07:42.488Z,98857.78
2022-08-17T12:10:12.240Z,98847.38
2022-08-17T12:12:44.099Z,98854.28
2022-08-17T12:15:21.487Z,98854.06
2022-08-17T12:17:56.518Z,98845.28
2022-08-17T12:20:35.313Z,98852.38
2022-08-17T12:23:35.991Z,98853.69
2022-08-17T12:26:17.362Z,98852.13
2022-08-17T12:28:46.868Z,98851.69
2022-08-17T12:31:20.514Z,98849.81
2022-08-17T12:33:51.714Z,98846.44
2022-08-17T12:36:26.126Z,98848.22
2022-08-17T12:39:12.872Z,98846.22
2022-08-17T12:41:47.149Z,98837.56
2022-08-17T12:44:13.743Z,98840.06
2022-08-17T12:46:59.103Z,98835.84
2022-08-17T12:49:37.250Z,98849.09
2022-08-17T12:52:25.729Z,98826.41
2022-08-17T12:54:59.925Z,98835.44
2022-08-17T12:57:34.185Z,98834.47
2022-08-17T13:00:07.880Z,98838.28
2022-08-17T13:03:01.679Z,98819.78
2022-08-17T13:05:36.179Z,98819.81
2022-08-17T13:08:14.193Z,98810.53
2022-08-17T13:10:41.239Z,98803.56
2022-08-17T13:13:26.774Z,98803.28
2022-08-17T13:15:57.266Z,98802.75
2022-08-17T13:18:39.282Z,98800.13
2022-08-17T13:21:12.333Z,98792.72
2022-08-17T13:23:39.044Z,98792.31
2022-08-17T13:26:17.685Z,98783.94
2022-08-17T13:28:49.727Z,98780.75
2022-08-17T13:31:28.483Z,98787.09
2022-08-17T13:34:25.298Z,98786.88
2022-08-17T13:37:32.483Z,98782.94
2022-08-17T13:40:02.451Z,98777.50
2022-08-17T13:42:53.789Z,98776.97
2022-08-17T13:45:39.406Z,98768.06
2022-08-17T13:48:12.352Z,98768.63
2022-08-17T13:51:03.985Z,98767.88
2022-08-17T13:53:32.939Z,98751.97
2022-08-17T13:56:38.008Z,98764.31
2022-08-17T13:59:08.081Z,98776.97
2022-08-17T14:01:34.729Z,98778.34
2022-08-17T14:04:05.063Z,98772.69
2022-08-17T14:06:53.844Z,98761.81
2022-08-17T14:09:24.830Z,98764.94
2022-08-17T14:11:52.920Z,98757.88
2022-08-17T14:14:20.016Z,98749.47
2022-08-17T14:16:46.611Z,98748.28
2022-08-17T14:19:14.425Z,98752.56
2022-08-17T14:21:44.282Z,98748.13
2022-08-17T14:24:24.140Z,98756.81
2022-08-17T14:26:52.316Z,98751.09
2022-08-17T14:29:20.746Z,98738.38
2022-08-17T14:31:49.646Z,98738.81
2022-08-17T14:34:20.836Z,98735.72
2022-08-17T14:36:48.329Z,98734.31
2022-08-17T14:39:16.779Z,98717.53
2022-08-17T14:41:43.601Z,98716.88
2022-08-17T14:44:13.494Z,98713.91
2022-08-17T14:46:44.829Z,98717.50
2022-08-17T14:49:12.591Z,98719.50
2022-08-17T14:51:44.130Z,98708.53
2022-08-17T14:54:34.012Z,98708.44
2022-08-17T14:57:23.154Z,98710.53
2022-08-17T14:59:54.821Z,98714.47
2022-08-17T15:02:30.046Z,98720.06
2022-08-17T15:05:05.291Z,98721.97
2022-08-17T15:07:31.975Z,98718.94
2022-08-17T15:10:02.252Z,98743.50
2022-08-17T15:12:33.631Z,98737.56
2022-08-17T15:15:04.828Z,98731.94
2022-08-17T15:17:44.412Z,98739.63
2022-08-17T15:20:23.846Z,98734.28
2022-08-17T15:22:54.974Z,98740.13
2022-08-17T15:25:22.424Z,98750.75
2022-08-17T15:27:49.555Z,98752.38
2022-08-17T15:30:16.772Z,98756.56
2022-08-17T15:32:51.405Z,98745.44
2022-08-17T15:35:27.434Z,98750.66
2022-08-17T15:37:57.355Z,98755.78
2022-08-17T15:40:23.903Z,98754.59
2022-08-17T15:42:51.218Z,98756.69
2022-08-17T15:45:24.555Z,98755.38
2022-08-17T15:47:52.532Z,98750.53
2022-08-17T15:50:19.493Z,98755.81
2022-08-17T15:52:47.529Z,98749.00
2022-08-17T15:55:15.210Z,98748.84
2022-08-17T15:57:42.128Z,98750.66
2022-08-17T16:00:09.781Z,98739.59
2022-08-17T16:03:44.584Z,98733.97
2022-08-17T16:05:25.253Z,98728.78
2022-08-17T16:07:53.256Z,98733.63
2022-08-17T16:10:21.087Z,98732.56
2022-08-17T16:12:49.691Z,98724.47
2022-08-17T16:15:18.171Z,98729.41
2022-08-17T16:17:45.075Z,98717.28
2022-08-17T16:20:20.120Z,98734.38
2022-08-17T16:22:49.334Z,98739.28
2022-08-17T16:25:52.205Z,98739.47
2022-08-17T16:28:17.596Z,98743.50
2022-08-17T16:30:44.410Z,98739.63
2022-08-17T16:33:11.677Z,98745.16
2022-08-17T16:35:38.724Z,98747.28
2022-08-17T16:38:07.266Z,98748.16
2022-08-17T16:40:36.061Z,98748.00
2022-08-17T16:43:07.049Z,98749.06
2022-08-17T16:45:36.846Z,98743.84
2022-08-17T16:48:04.443Z,98740.00
2022-08-17T16:50:32.005Z,98738.56
2022-08-17T16:53:11.642Z,98732.94
2022-08-17T16:55:38.638Z,98727.66
2022-08-17T16:58:06.863Z,98724.06
2022-08-17T17:00:34.074Z,98736.06
2022-08-17T17:03:19.049Z,98746.81
2022-08-17T17:06:14.321Z,98756.81
2022-08-17T17:08:50.774Z,98744.78
2022-08-17T17:11:26.973Z,98749.34
2022-08-17T17:14:00.008Z,98748.38
2022-08-17T17:16:48.880Z,98741.31
2022-08-17T17:19:35.017Z,98741.69
2022-08-17T17:22:29.493Z,98740.38
2022-08-17T17:25:26.425Z,98738.69
2022-08-17T17:28:25.244Z,98749.84
2022-08-17T17:31:03.800Z,98741.41
2022-08-17T17:34:00.603Z,98745.56
2022-08-17T17:36:45.350Z,98735.78
2022-08-17T17:39:36.434Z,98740.63
2022-08-17T17:42:07.724Z,98751.03
2022-08-17T17:44:41.050Z,98753.16
2022-08-17T17:47:07.782Z,98745.84
2022-08-17T17:49:38.265Z,98742.41
2022-08-17T17:52:19.418Z,98742.97
2022-08-17T17:54:48.915Z,98748.38
2022-08-17T17:57:34.143Z,98753.09
2022-08-17T18:00:13.785Z,98761.63
2022-08-17T18:02:55.229Z,98766.84
2022-08-17T18:05:36.921Z,98766.50
2022-08-17T18:08:10.948Z,98772.06
2022-08-17T18:10:49.055Z,98769.03
2022-08-17T18:13:50.142Z,98774.28
2022-08-17T18:16:18.355Z,98773.25
2022-08-17T18:18:50.032Z,98782.16
2022-08-17T18:21:28.947Z,98794.28
2022-08-17T18:23:58.716Z,98801.56
2022-08-17T18:26:34.680Z,98797.72
2022-08-17T18:29:02.297Z,98802.66
2022-08-17T18:31:29.040Z,98821.38
2022-08-17T18:34:51.494Z,98825.84
2022-08-17T18:37:13.250Z,98823.56
2022-08-17T18:39:42.831Z,98829.19
2022-08-17T18:42:26.044Z,98829.31
2022-08-17T18:44:55.296Z,98827.03
2022-08-17T18:47:26.673Z,98830.25
2022-08-17T18:50:02.365Z,98825.56
2022-08-17T18:52:33.707Z,98825.66
2022-08-17T18:55:29.086Z,98828.13
2022-08-17T18:57:59.667Z,98825.44
2022-08-17T19:00:41.434Z,98837.44
2022-08-17T19:03:20.191Z,98839.47
2022-08-17T19:05:55.290Z,98843.09
2022-08-17T19:08:24.555Z,98844.31
2022-08-17T19:11:26.127Z,98853.06
2022-08-17T19:13:58.472Z,98858.22
2022-08-17T19:16:50.407Z,98870.53
2022-08-17T19:19:20.008Z,98869.72
2022-08-17T19:21:53.296Z,98871.31
2022-08-17T19:24:21.539Z,98880.81
2022-08-17T19:27:06.178Z,98887.16
2022-08-17T19:29:57.616Z,98886.75
2022-08-17T19:32:34.550Z,98886.38
2022-08-17T19:35:03.618Z,98890.34
2022-08-17T19:38:12.720Z,98889.19
2022-08-17T19:40:52.950Z,98899.88
2022-08-17T19:43:47.337Z,98898.69
2022-08-17T19:46:18.677Z,98895.16
2022-08-17T19:49:33.403Z,98895.97
2022-08-17T19:52:07.195Z,98890.44
2022-08-17T19:54:52.503Z,98894.41
2022-08-17T19:57:51.040Z,98895.63
2022-08-17T20:00:19.452Z,98896.44
2022-08-17T20:02:45.928Z,98900.00
2022-08-17T20:05:18.245Z,98885.03
2022-08-17T20:08:04.070Z,98889.78
2022-08-17T20:10:47.263Z,98890.97
2022-08-17T20:13:47.472Z,98894.16
2022-08-17T20:16:14.036Z,98900.84
2022-08-17T20:18:50.719Z,98894.56
2022-08-17T20:21:29.612Z,98899.31
2022-08-17T20:24:21.255Z,98894.97
2022-08-17T20:26:58.105Z,98900.88
2022-08-17T20:29:47.257Z,98902.06
2022-08-17T20:32:26.868Z,98907.19
2022-08-17T20:35:20.950Z,98902.03
2022-08-17T20:38:33.762Z,98896.91
2022-08-17T20:41:01.047Z,98895.31
2022-08-17T20:43:33.579Z,98897.72
2022-08-17T20:46:19.501Z,98889.44
2022-08-17T20:48:50.597Z,98888.25
2022-08-17T20:51:27.140Z,98889.06
2022-08-17T20:53:53.635Z,98892.59
2022-08-17T20:56:46.455Z,98894.16
2022-08-17T20:59:25.886Z,98902.84
2022-08-17T21:02:23.634Z,98907.97
2022-08-17T21:04:50.128Z,98905.22
2022-08-17T21:07:42.969Z,98915.06
2022-08-17T21:10:13.929Z,98917.44
2022-08-17T21:12:42.038Z,98916.25
2022-08-17T21:15:28.494Z,98921.75
2022-08-17T21:18:12.416Z,98916.63
2022-08-17T21:21:03.252Z,98926.06
2022-08-17T21:24:00.308Z,98921.38
2022-08-17T21:26:53.745Z,98925.25
2022-08-17T21:29:31.730Z,98924.88
2022-08-17T21:31:59.529Z,98922.91
2022-08-17T21:34:44.663Z,98929.19
2022-08-17T21:37:20.566Z,98929.59
2022-08-17T21:39:58.332Z,98919.75
2022-08-17T21:42:31.686Z,98923.69
2022-08-17T21:45:10.893Z,98913.78
2022-08-17T21:47:43.670Z,98921.66
2022-08-17T21:50:20.311Z,98924.41
2022-08-17T21:52:48.950Z,98921.22
2022-08-17T21:55:28.319Z,98928.31
2022-08-17T21:58:12.183Z,98930.25
2022-08-17T22:00:44.351Z,98934.19
2022-08-17T22:03:24.350Z,98933.78
2022-08-17T22:05:51.484Z,98928.28
2022-08-17T22:08:21.947Z,98929.88
2022-08-17T22:10:51.152Z,98927.47
2022-08-17T22:13:17.846Z,98931.81
2022-08-17T22:16:28.547Z,98940.44
2022-08-17T22:18:58.338Z,98940.41
2022-08-17T22:21:25.428Z,98956.91
2022-08-17T22:24:05.185Z,98961.94
2022-08-17T22:26:59.675Z,98963.50
2022-08-17T22:29:42.697Z,98969.75
2022-08-17T22:32:09.928Z,98969.75
2022-08-17T22:34:38.504Z,98971.66
2022-08-17T22:37:27.935Z,98973.59
2022-08-17T22:39:59.175Z,98966.47
2022-08-17T22:42:25.881Z,98985.34
2022-08-17T22:44:54.087Z,98994.78
2022-08-17T22:47:32.455Z,98986.91
2022-08-17T22:50:01.747Z,98994.72
2022-08-17T22:53:01.068Z,98989.97
2022-08-17T22:55:49.449Z,98988.00
2022-08-17T22:58:37.488Z,98977.72
2022-08-17T23:01:25.579Z,98980.34
2022-08-17T23:03:59.368Z,98985.84
2022-08-17T23:06:25.992Z,98989.31
2022-08-17T23:08:56.353Z,98981.78
2022-08-17T23:11:36.933Z,98988.03
2022-08-17T23:14:14.599Z,98987.19
2022-08-17T23:16:42.727Z,98992.28
2022-08-17T23:19:15.538Z,99001.28
2022-08-17T23:21:44.917Z,99001.28
2022-08-17T23:24:19.859Z,99004.44
2022-08-17T23:26:46.626Z,99004.91
2022-08-17T23:29:13.352Z,98988.03
2022-08-17T23:31:40.468Z,98992.00
2022-08-17T23:34:11.420Z,98996.75
2022-08-17T23:37:06.664Z,98999.88
2022-08-17T23:39:34.539Z,99003.03
2022-08-17T23:42:05.335Z,98989.69
2022-08-17T23:44:32.940Z,98992.03
2022-08-17T23:46:59.660Z,98981.41
2022-08-17T23:49:26.341Z,98984.94
2022-08-17T23:51:56.583Z,98978.56
2022-08-17T23:54:33.630Z,98961.97
2022-08-17T23:57:04.940Z,98965.06
2022-08-17T23:59:32.964Z,98965.38
